Time;durP1;ratioP1;P1;durP2;ratioP2;P2;SDS_P1;SDS_P2;PMS_P1;PMS_P2;Temp;Humidity;BMP_temperature;BMP_pressure;BME280_temperature;BME280_humidity;BME280_pressure;Samples;Min_cycle;Max_cycle;Signal;HPM_P1;HPM_P2
2022/04/06 00:01:33;;;;;;;8.60;5.90;;;;;;;5.47;70.47;98912.81;88211;1274;83070;-72
2022/04/06 00:03:43;;;;;;;11.00;6.50;;;;;;;5.47;70.53;98911.15;88199;1276;96900;-73
2022/04/06 00:05:55;;;;;;;8.30;6.00;;;;;;;5.44;70.83;98912.92;88182;1276;89373;-75
2022/04/06 00:08:05;;;;;;;11.90;6.40;;;;;;;5.45;70.84;98908.15;88128;1276;94749;-75
2022/04/06 00:10:16;;;;;;;9.70;5.90;;;;;;;5.40;71.90;98911.58;88164;1274;78465;-75
2022/04/06 00:12:25;;;;;;;12.10;6.90;;;;;;;5.46;71.86;98913.05;88147;1276;81213;-74
2022/04/06 00:14:40;;;;;;;9.70;6.60;;;;;;;5.51;71.99;98918.63;88139;1276;99074;-73
2022/04/06 00:16:50;;;;;;;8.30;6.20;;;;;;;5.57;71.89;98917.14;88170;1276;88909;-74
2022/04/06 00:18:59;;;;;;;9.80;6.50;;;;;;;5.63;71.85;98916.61;88158;1276;95356;-75
2022/04/06 00:21:12;;;;;;;10.30;7.40;;;;;;;5.67;71.84;98917.48;88132;1276;79957;-72
2022/04/06 00:23:22;;;;;;;9.10;6.60;;;;;;;5.71;71.80;98920.96;88230;1274;82950;-72
2022/04/06 00:25:32;;;;;;;7.70;6.90;;;;;;;5.76;71.82;98920.63;88017;1278;97875;-73
2022/04/06 00:27:45;;;;;;;10.50;7.10;;;;;;;5.77;71.97;98921.83;88168;1274;87868;-73
2022/04/06 00:29:55;;;;;;;12.10;7.10;;;;;;;5.74;71.75;98924.02;88183;1276;93258;-74
2022/04/06 00:32:05;;;;;;;11.00;7.60;;;;;;;5.73;72.05;98916.53;88158;1276;80048;-73
2022/04/06 00:34:14;;;;;;;9.70;6.50;;;;;;;5.71;72.60;98912.44;88167;1276;81864;-75
2022/04/06 00:36:26;;;;;;;11.00;8.00;;;;;;;5.68;72.73;98912.99;88079;1279;99910;-72
2022/04/06 00:38:34;;;;;;;10.30;7.50;;;;;;;5.70;72.67;98911.48;88171;1274;88099;-73
2022/04/06 00:40:44;;;;;;;10.00;6.40;;;;;;;5.71;72.98;98912.39;88162;1276;94932;-73
2022/04/06 00:42:53;;;;;;;10.50;7.20;;;;;;;5.75;73.29;98914.44;88170;1276;80504;-75
2022/04/06 00:45:02;;;;;;;9.60;7.20;;;;;;;5.79;73.23;98912.63;88176;1276;83217;-74
2022/04/06 00:47:13;;;;;;;10.30;7.60;;;;;;;5.83;74.12;98915.62;88028;1277;99296;-74
2022/04/06 00:49:25;;;;;;;12.50;8.20;;;;;;;5.87;73.94;98913.17;88225;1276;88918;-73
2022/04/06 00:51:34;;;;;;;11.50;7.80;;;;;;;5.89;73.71;98908.93;88149;1276;96178;-75
2022/04/06 00:53:43;;;;;;;11.70;8.20;;;;;;;5.88;74.45;98905.30;88183;1274;78098;-74
2022/04/06 00:55:52;;;;;;;11.00;8.20;;;;;;;5.85;73.75;98902.59;88195;1274;80922;-74
2022/04/06 00:58:02;;;;;;;11.10;8.40;;;;;;;5.83;73.75;98901.42;88139;1276;99017;-75
2022/04/06 01:00:13;;;;;;;12.30;8.50;;;;;;;5.82;73.82;98901.60;88161;1276;89336;-74
2022/04/06 01:02:22;;;;;;;9.60;7.30;;;;;;;5.83;74.09;98901.02;88177;1276;93632;-74
2022/04/06 01:04:31;;;;;;;9.50;7.30;;;;;;;5.83;74.36;98901.93;88153;1276;81423;-75
2022/04/06 01:06:44;;;;;;;10.50;8.20;;;;;;;5.86;74.11;98898.19;88180;1276;83457;-73
2022/04/06 01:08:58;;;;;;;10.10;8.00;;;;;;;5.91;74.17;98899.35;88191;1276;97612;-74
2022/04/06 01:11:08;;;;;;;9.90;7.90;;;;;;;5.94;74.26;98902.95;88153;1274;88019;-75
2022/04/06 01:13:18;;;;;;;11.10;8.10;;;;;;;5.95;74.39;98903.53;88186;1276;95493;-76
2022/04/06 01:15:28;;;;;;;11.30;8.60;;;;;;;5.98;74.20;98904.62;88175;1276;77857;-76
2022/04/06 01:17:40;;;;;;;12.50;8.70;;;;;;;5.96;74.40;98905.02;88146;1276;81701;-74
2022/04/06 01:19:51;;;;;;;10.80;8.60;;;;;;;5.94;74.32;98909.59;88180;1274;98605;-75
2022/04/06 01:22:01;;;;;;;12.00;8.20;;;;;;;5.95;74.43;98909.92;88178;1276;88607;-74
2022/04/06 01:24:10;;;;;;;13.50;9.20;;;;;;;5.94;74.12;98906.95;88137;1276;94701;-74
2022/04/06 01:26:20;;;;;;;11.70;8.40;;;;;;;5.96;74.40;98906.91;88050;1276;81972;-74
2022/04/06 01:28:33;;;;;;;12.10;9.10;;;;;;;6.00;74.47;98921.13;88191;1274;81452;-75
2022/04/06 01:30:42;;;;;;;10.90;8.10;;;;;;;5.99;74.55;98913.73;88138;1276;98652;-74
2022/04/06 01:32:56;;;;;;;12.40;9.10;;;;;;;6.00;74.61;98913.42;88164;1276;88726;-74
2022/04/06 01:35:07;;;;;;;11.90;8.80;;;;;;;6.02;74.62;98910.80;88008;1279;96972;-74
2022/04/06 01:37:18;;;;;;;15.10;9.80;;;;;;;6.05;74.40;98924.08;88154;1276;77614;-75
2022/04/06 01:39:27;;;;;;;12.70;9.20;;;;;;;5.99;74.60;98915.48;88177;1276;82992;-74
2022/04/06 01:41:38;;;;;;;11.00;8.70;;;;;;;5.96;74.50;98917.72;88186;1276;99116;-78
2022/04/06 01:43:50;;;;;;;11.70;8.40;;;;;;;5.89;74.56;98915.94;88174;1276;87827;-77
2022/04/06 01:46:01;;;;;;;11.90;9.40;;;;;;;5.86;74.54;98914.68;88149;1276;95883;-75
2022/04/06 01:48:11;;;;;;;12.40;8.60;;;;;;;5.89;74.54;98908.89;88144;1276;81482;-72
2022/04/06 01:52:48;;;;;;;12.30;9.90;;;;;;;5.93;74.84;98900.63;88176;1274;97967;-71
2022/04/06 01:55:06;;;;;;;11.60;9.30;;;;;;;5.96;75.12;98895.36;88174;1276;86647;-71
2022/04/06 01:57:16;;;;;;;11.50;9.60;;;;;;;5.94;74.99;98903.36;88157;1276;94705;-79
2022/04/06 01:59:28;;;;;;;12.20;9.50;;;;;;;5.96;75.07;98907.50;88394;1276;79531;-82
2022/04/06 02:01:38;;;;;;;15.40;11.30;;;;;;;5.97;75.15;98906.34;88249;1276;80450;-75
2022/04/06 02:03:47;;;;;;;19.50;13.40;;;;;;;5.91;75.34;98910.89;88169;1276;97558;-75
2022/04/06 02:05:56;;;;;;;20.80;12.70;;;;;;;5.86;75.35;98905.93;88133;1276;88062;-77
2022/04/06 02:08:06;;;;;;;12.30;9.40;;;;;;;5.80;75.45;98906.48;88158;1276;93753;-77
2022/04/06 02:10:20;;;;;;;13.60;8.50;;;;;;;5.74;75.19;98915.27;88128;1276;80026;-77
2022/04/06 02:12:30;;;;;;;15.20;8.10;;;;;;;5.65;75.34;98923.96;88180;1274;82661;-77
2022/04/06 02:14:40;;;;;;;14.60;8.40;;;;;;;5.57;75.12;98933.09;88139;1276;99227;-76
2022/04/06 02:16:49;;;;;;;12.40;7.70;;;;;;;5.52;75.22;98936.75;88205;1276;87369;-81
2022/04/06 02:19:00;;;;;;;12.90;8.40;;;;;;;5.45;75.43;98938.91;88149;1276;93727;-77
2022/04/06 02:21:12;;;;;;;11.20;7.70;;;;;;;5.36;75.30;98944.82;88170;1276;78017;-70
2022/04/06 02:23:23;;;;;;;12.70;7.50;;;;;;;5.34;75.28;98947.91;88172;1276;83323;-70
2022/04/06 02:25:33;;;;;;;12.00;7.50;;;;;;;5.27;75.03;98951.73;88164;1276;95922;-70
2022/04/06 02:27:51;;;;;;;13.90;7.60;;;;;;;5.16;75.17;98943.16;88127;1278;87328;-70
2022/04/06 02:30:00;;;;;;;21.90;14.00;;;;;;;5.07;75.17;98934.15;88141;1276;95693;-69
2022/04/06 02:32:11;;;;;;;17.50;11.50;;;;;;;5.01;75.32;98936.64;88163;1276;80208;-78
2022/04/06 02:34:20;;;;;;;11.60;7.10;;;;;;;4.98;75.37;98938.48;88192;1275;81197;-79
2022/04/06 02:36:29;;;;;;;14.50;7.40;;;;;;;4.94;75.48;98940.02;88179;1276;97602;-80
2022/04/06 02:38:42;;;;;;;12.50;8.50;;;;;;;4.95;75.41;98939.74;88163;1274;89125;-79
2022/04/06 02:40:52;;;;;;;12.20;7.00;;;;;;;4.95;75.46;98947.44;88044;1278;94840;-82
2022/04/06 02:43:02;;;;;;;11.10;7.60;;;;;;;4.97;75.69;98953.51;88187;1276;78206;-80
2022/04/06 02:45:13;;;;;;;10.90;7.30;;;;;;;4.99;75.79;98952.96;88142;1276;80731;-73
2022/04/06 02:47:23;;;;;;;12.10;7.10;;;;;;;4.99;75.72;98953.16;88197;1276;98553;-74
2022/04/06 02:49:32;;;;;;;11.70;8.00;;;;;;;4.96;75.74;98951.80;88164;1276;89373;-73
2022/04/06 02:51:41;;;;;;;10.80;7.30;;;;;;;4.91;75.89;98956.48;88151;1276;95903;-72
2022/04/06 02:53:50;;;;;;;11.90;7.80;;;;;;;4.90;75.74;98957.63;88015;1278;79845;-72
2022/04/06 02:55:59;;;;;;;12.30;8.30;;;;;;;4.89;75.81;98953.90;88202;1276;82858;-81
2022/04/06 02:58:08;;;;;;;11.40;8.30;;;;;;;4.85;75.83;98956.70;88173;1274;98788;-77
2022/04/06 03:00:19;;;;;;;12.40;7.50;;;;;;;4.83;75.88;98964.25;88172;1276;87841;-75
2022/04/06 03:02:31;;;;;;;9.00;6.90;;;;;;;4.81;75.84;98966.83;88150;1276;94199;-74
2022/04/06 03:04:41;;;;;;;11.30;6.70;;;;;;;4.84;76.20;98964.30;88151;1274;81770;-74
2022/04/06 03:06:50;;;;;;;12.00;6.80;;;;;;;4.88;76.14;98967.80;88184;1276;81897;-79
2022/04/06 03:08:59;;;;;;;11.60;6.60;;;;;;;4.89;76.09;98973.66;88161;1276;96747;-77
2022/04/06 03:11:09;;;;;;;11.30;7.90;;;;;;;4.86;76.27;98982.65;87912;1276;371478;-77
2022/04/06 03:13:19;;;;;;;11.80;7.40;;;;;;;4.85;76.38;98977.74;88157;1276;93999;-80
2022/04/06 03:15:28;;;;;;;11.60;7.60;;;;;;;4.88;76.14;98980.42;88151;1276;77109;-76
2022/04/06 03:17:36;;;;;;;9.30;7.60;;;;;;;4.86;76.35;98981.38;88205;1274;80924;-68
2022/04/06 03:19:46;;;;;;;10.70;7.50;;;;;;;4.83;76.31;98983.22;88205;1274;98301;-69
2022/04/06 03:21:55;;;;;;;10.70;7.40;;;;;;;4.78;76.31;98994.92;88213;1275;87222;-72
2022/04/06 03:24:08;;;;;;;12.20;7.70;;;;;;;4.74;76.52;98997.10;88155;1276;95817;-75
2022/04/06 03:26:17;;;;;;;10.00;7.70;;;;;;;4.76;76.53;98991.21;88186;1276;79924;-78
2022/04/06 03:28:26;;;;;;;10.90;7.20;;;;;;;4.71;76.47;98988.52;88185;1274;80044;-78
2022/04/06 03:30:37;;;;;;;10.20;7.30;;;;;;;4.72;76.55;98990.58;88187;1274;98840;-78
2022/04/06 03:32:50;;;;;;;10.40;7.10;;;;;;;4.76;76.68;99002.98;88233;1276;85496;-77
2022/04/06 03:35:00;;;;;;;11.20;7.80;;;;;;;4.77;76.71;99001.42;88132;1276;94930;-76
2022/04/06 03:37:14;;;;;;;9.00;7.20;;;;;;;4.76;76.79;98998.82;88162;1276;78786;-77
2022/04/06 03:39:24;;;;;;;10.40;7.90;;;;;;;4.74;76.89;98996.74;88116;1277;81685;-77
2022/04/06 03:41:33;;;;;;;11.60;8.20;;;;;;;4.73;76.77;99000.27;88170;1274;97267;-76
2022/04/06 03:43:42;;;;;;;11.80;8.60;;;;;;;4.71;76.95;99005.22;88141;1276;88081;-77
2022/04/06 03:45:51;;;;;;;17.90;10.10;;;;;;;4.66;76.93;99012.52;88210;1274;93614;-76
2022/04/06 03:48:03;;;;;;;10.90;7.60;;;;;;;4.66;76.88;99019.10;88115;1276;78919;-74
2022/04/06 03:50:13;;;;;;;13.20;8.70;;;;;;;4.65;76.97;99016.61;88162;1276;82255;-74
2022/04/06 03:52:23;;;;;;;12.40;7.60;;;;;;;4.65;77.05;99016.04;88148;1276;97505;-73
2022/04/06 03:54:33;;;;;;;12.60;8.00;;;;;;;4.66;77.11;99018.53;88131;1276;89045;-74
2022/04/06 03:56:45;;;;;;;11.70;7.50;;;;;;;4.66;77.28;99016.35;88182;1276;96409;-74
2022/04/06 03:58:57;;;;;;;12.30;7.90;;;;;;;4.65;77.19;99016.12;88139;1276;78389;-75
2022/04/06 04:01:06;;;;;;;10.10;7.70;;;;;;;4.67;77.25;99026.11;88170;1277;81620;-75
2022/04/06 04:03:15;;;;;;;12.50;8.50;;;;;;;4.70;77.19;99038.05;88191;1274;97734;-74
2022/04/06 04:05:25;;;;;;;11.50;8.30;;;;;;;4.70;77.18;99038.96;88128;1278;89236;-74
2022/04/06 04:07:37;;;;;;;15.10;8.90;;;;;;;4.68;77.24;99036.93;88153;1276;95842;-75
2022/04/06 04:09:47;;;;;;;12.00;8.70;;;;;;;4.64;77.35;99043.60;88134;1276;78031;-75
2022/04/06 04:11:56;;;;;;;12.50;8.60;;;;;;;4.60;77.41;99042.52;88165;1277;80728;-74
2022/04/06 04:14:06;;;;;;;12.40;8.80;;;;;;;4.57;77.54;99046.45;88129;1277;98542;-75
2022/04/06 04:16:17;;;;;;;11.40;8.90;;;;;;;4.57;77.32;99041.80;88200;1276;87138;-76
2022/04/06 04:18:27;;;;;;;11.00;8.10;;;;;;;4.54;77.57;99041.61;88123;1276;94715;-75
2022/04/06 04:20:36;;;;;;;11.50;7.90;;;;;;;4.58;77.63;99049.35;88178;1274;81138;-73
2022/04/06 04:22:48;;;;;;;17.50;9.50;;;;;;;4.59;77.67;99050.64;88193;1277;81368;-75
2022/04/06 04:25:00;;;;;;;11.00;8.60;;;;;;;4.57;77.76;99053.08;88188;1274;99466;-75
2022/04/06 04:27:10;;;;;;;10.70;8.70;;;;;;;4.59;77.66;99050.64;88193;1278;88892;-74
2022/04/06 04:29:19;;;;;;;12.40;9.40;;;;;;;4.62;77.65;99054.35;88155;1277;95772;-74
2022/04/06 04:31:31;;;;;;;12.90;9.90;;;;;;;4.62;77.71;99049.81;88217;1274;77846;-75
2022/04/06 04:33:41;;;;;;;13.80;10.40;;;;;;;4.61;77.76;99049.89;88188;1276;80300;-76
2022/04/06 04:35:50;;;;;;;14.50;10.40;;;;;;;4.62;77.69;99054.92;88163;1277;99063;-73
2022/04/06 04:38:02;;;;;;;11.80;8.80;;;;;;;4.59;77.60;99053.22;88131;1277;89311;-74
2022/04/06 04:40:16;;;;;;;11.90;9.00;;;;;;;4.58;77.74;99051.70;88177;1277;94385;-76
2022/04/06 04:42:26;;;;;;;10.00;7.70;;;;;;;4.59;77.66;99053.15;88162;1277;82279;-75
2022/04/06 04:44:35;;;;;;;11.20;8.20;;;;;;;4.58;77.71;99052.19;88142;1277;82499;-73
2022/04/06 04:46:44;;;;;;;8.80;7.30;;;;;;;4.56;77.79;99052.13;88176;1277;99196;-76
2022/04/06 04:48:54;;;;;;;10.10;7.10;;;;;;;4.57;77.76;99050.58;88171;1276;89162;-75
2022/04/06 04:51:03;;;;;;;17.10;11.50;;;;;;;4.60;77.83;99053.53;88014;1278;94545;-70
2022/04/06 04:53:16;;;;;;;9.30;7.50;;;;;;;4.63;77.79;99061.27;88181;1277;79829;-77
2022/04/06 04:55:25;;;;;;;11.30;7.50;;;;;;;4.62;77.78;99069.21;88177;1276;80925;-76
2022/04/06 04:57:35;;;;;;;10.20;7.80;;;;;;;4.60;77.81;99070.16;88143;1276;98165;-76
2022/04/06 04:59:44;;;;;;;11.00;7.30;;;;;;;4.60;77.74;99072.70;88172;1277;87237;-75
2022/04/06 05:01:53;;;;;;;11.80;7.20;;;;;;;4.59;77.82;99072.94;88165;1276;95740;-76
2022/04/06 05:04:03;;;;;;;8.00;7.20;;;;;;;4.57;77.75;99077.67;88149;1276;81734;-76
2022/04/06 05:06:12;;;;;;;10.40;6.60;;;;;;;4.56;77.69;99081.22;88196;1274;82434;-74
2022/04/06 05:08:22;;;;;;;7.40;6.40;;;;;;;4.56;77.75;99083.14;88160;1277;98295;-75
2022/04/06 05:10:31;;;;;;;9.40;6.30;;;;;;;4.55;77.78;99084.83;88155;1276;86360;-76
2022/04/06 05:12:41;;;;;;;7.70;6.20;;;;;;;4.58;77.91;99085.56;88161;1276;95678;-76
2022/04/06 05:14:51;;;;;;;8.50;6.50;;;;;;;4.62;77.84;99083.61;88132;1277;78101;-76
2022/04/06 05:17:01;;;;;;;8.20;6.20;;;;;;;4.66;77.84;99084.07;88128;1277;81529;-75
2022/04/06 05:19:09;;;;;;;8.70;6.60;;;;;;;4.72;77.75;99079.95;88184;1277;98047;-75
2022/04/06 05:21:21;;;;;;;9.90;6.00;;;;;;;4.79;77.76;99085.23;88141;1277;86809;-76
2022/04/06 05:23:30;;;;;;;8.20;6.70;;;;;;;4.75;77.74;99089.22;88106;1276;94286;-72
2022/04/06 05:25:41;;;;;;;10.40;7.00;;;;;;;4.72;77.69;99090.63;88215;1274;79037;-73
2022/04/06 05:27:55;;;;;;;16.90;10.10;;;;;;;4.70;77.59;99094.99;88167;1277;80488;-73
2022/04/06 05:30:05;;;;;;;13.40;8.80;;;;;;;4.70;77.54;99101.50;88138;1276;99148;-73
2022/04/06 05:32:17;;;;;;;11.10;7.70;;;;;;;4.69;77.47;99109.42;88159;1277;89374;-73
2022/04/06 05:34:27;;;;;;;10.30;6.40;;;;;;;4.67;77.53;99107.59;88136;1277;95831;-73
2022/04/06 05:36:36;;;;;;;9.00;6.00;;;;;;;4.71;77.55;99111.42;88123;1278;81482;-73
2022/04/06 05:38:45;;;;;;;7.50;5.60;;;;;;;4.82;77.60;99115.86;88144;1277;80876;-73
2022/04/06 05:40:58;;;;;;;8.00;6.10;;;;;;;4.85;77.64;99118.63;88149;1277;95721;-74
2022/04/06 05:43:08;;;;;;;8.70;6.40;;;;;;;4.90;77.57;99119.86;88204;1274;88757;-70
2022/04/06 05:45:21;;;;;;;8.80;6.70;;;;;;;4.93;77.68;99117.04;88136;1277;93817;-72
2022/04/06 05:47:31;;;;;;;7.60;6.10;;;;;;;4.90;77.63;99120.36;88186;1274;79190;-73
2022/04/06 05:49:40;;;;;;;7.90;5.90;;;;;;;4.94;77.51;99118.98;88118;1276;82538;-70
2022/04/06 05:51:52;;;;;;;7.80;6.50;;;;;;;4.95;77.64;99123.63;88116;1278;97489;-73
2022/04/06 05:54:04;;;;;;;7.50;5.70;;;;;;;4.96;77.53;99123.72;88124;1277;88120;-73
2022/04/06 05:56:13;;;;;;;9.50;6.40;;;;;;;4.96;77.50;99132.36;88144;1277;95896;-73
2022/04/06 05:58:22;;;;;;;8.40;6.30;;;;;;;4.94;77.53;99134.41;88129;1278;81689;-73
2022/04/06 06:00:35;;;;;;;10.70;6.10;;;;;;;4.99;77.62;99130.67;88048;1277;82186;-73
2022/04/06 06:02:44;;;;;;;8.30;5.90;;;;;;;5.01;77.73;99126.22;88139;1276;99933;-73
2022/04/06 06:04:57;;;;;;;7.70;6.40;;;;;;;5.07;77.70;99129.02;88160;1276;88686;-72
2022/04/06 06:07:07;;;;;;;6.80;5.80;;;;;;;5.12;77.74;99133.95;88158;1276;95489;-72
2022/04/06 06:09:15;;;;;;;7.30;6.00;;;;;;;5.08;77.53;99139.54;88149;1277;77723;-72
2022/04/06 06:11:27;;;;;;;9.40;6.30;;;;;;;5.09;77.57;99149.44;88169;1278;82424;-72
2022/04/06 06:13:35;;;;;;;8.90;6.20;;;;;;;5.08;77.62;99152.19;88147;1276;97789;-73
2022/04/06 06:15:45;;;;;;;9.10;6.90;;;;;;;5.11;77.70;99147.28;88165;1276;89056;-73
2022/04/06 06:17:57;;;;;;;7.30;6.20;;;;;;;5.02;77.60;99145.96;88056;1277;96864;-74
2022/04/06 06:20:08;;;;;;;15.80;9.80;;;;;;;5.03;77.88;99147.33;88158;1277;78521;-74
2022/04/06 06:22:21;;;;;;;37.50;28.00;;;;;;;5.10;77.85;99150.44;88164;1277;83783;-74
2022/04/06 06:24:31;;;;;;;12.20;8.50;;;;;;;5.19;77.86;99148.23;88176;1274;98799;-75
2022/04/06 06:26:42;;;;;;;12.70;7.60;;;;;;;5.28;77.80;99147.51;88200;1276;88697;-73
2022/04/06 06:28:52;;;;;;;8.60;7.20;;;;;;;5.36;77.69;99144.23;88161;1277;95203;-76
2022/04/06 06:31:01;;;;;;;9.20;7.40;;;;;;;5.45;77.85;99143.11;88171;1277;78163;-75
2022/04/06 06:33:10;;;;;;;7.90;6.90;;;;;;;5.49;77.68;99147.27;88154;1276;83899;-75
2022/04/06 06:35:20;;;;;;;8.70;6.60;;;;;;;5.55;77.86;99144.97;88150;1277;99003;-73
2022/04/06 06:37:29;;;;;;;11.40;8.40;;;;;;;5.59;77.79;99146.03;88171;1276;86039;-74
2022/04/06 06:39:37;;;;;;;10.40;6.90;;;;;;;5.62;77.76;99146.70;88174;1274;93266;-72
2022/04/06 06:41:49;;;;;;;8.70;7.40;;;;;;;5.62;77.86;99144.52;88124;1276;80950;-73
2022/04/06 06:44:02;;;;;;;8.50;6.80;;;;;;;5.67;77.52;99144.16;88168;1276;82083;-74
2022/04/06 06:46:15;;;;;;;7.70;6.20;;;;;;;5.69;77.43;99145.09;88184;1276;97656;-70
2022/04/06 06:48:24;;;;;;;7.60;6.40;;;;;;;5.66;77.42;99147.61;88174;1274;88643;-73
2022/04/06 06:50:32;;;;;;;8.40;6.00;;;;;;;5.70;77.67;99147.81;88144;1276;95817;-69
2022/04/06 06:52:42;;;;;;;8.90;6.30;;;;;;;5.73;77.88;99148.92;88198;1274;77011;-69
2022/04/06 06:54:51;;;;;;;7.40;6.00;;;;;;;5.74;77.98;99149.03;88189;1275;81536;-69
2022/04/06 06:57:05;;;;;;;7.00;5.60;;;;;;;5.80;77.59;99144.48;88134;1277;99500;-78
2022/04/06 06:59:14;;;;;;;7.50;6.70;;;;;;;5.80;77.96;99144.02;88190;1274;86919;-76
2022/04/06 07:01:27;;;;;;;11.60;6.60;;;;;;;5.87;77.94;99142.89;88163;1276;94439;-74
2022/04/06 07:03:36;;;;;;;9.40;6.30;;;;;;;5.94;77.43;99140.19;88121;1277;78756;-74
2022/04/06 07:05:49;;;;;;;8.60;6.30;;;;;;;5.92;77.13;99139.56;88213;1274;79534;-73
2022/04/06 07:08:02;;;;;;;6.80;6.00;;;;;;;5.89;77.00;99141.31;88141;1276;99012;-76
2022/04/06 07:10:13;;;;;;;6.60;5.80;;;;;;;5.83;76.92;99145.80;88171;1277;86409;-75
2022/04/06 07:12:23;;;;;;;7.10;6.10;;;;;;;5.80;76.93;99147.61;88053;1277;94299;-75
2022/04/06 07:14:33;;;;;;;6.90;5.50;;;;;;;5.77;76.78;99150.50;88119;1277;79060;-75
2022/04/06 07:16:43;;;;;;;7.30;5.30;;;;;;;5.72;76.74;99147.05;88121;1277;81522;-74
2022/04/06 07:18:52;;;;;;;6.10;5.00;;;;;;;5.68;76.65;99142.20;88134;1276;98687;-75
2022/04/06 07:21:02;;;;;;;6.00;5.40;;;;;;;5.73;76.95;99144.73;88142;1277;88055;-75
2022/04/06 07:23:12;;;;;;;6.40;5.60;;;;;;;5.74;77.04;99147.36;88091;1277;94552;-73
2022/04/06 07:25:26;;;;;;;8.30;6.30;;;;;;;5.80;77.18;99151.98;88137;1276;79729;-73
2022/04/06 07:27:41;;;;;;;8.80;6.60;;;;;;;5.89;77.22;99149.96;88172;1276;82493;-76
2022/04/06 07:29:53;;;;;;;7.80;6.50;;;;;;;5.96;77.41;99148.17;88082;1277;100284;-75
2022/04/06 07:32:08;;;;;;;11.00;7.00;;;;;;;6.03;77.15;99147.64;88151;1276;86043;-75
2022/04/06 07:34:20;;;;;;;16.40;6.70;;;;;;;6.10;76.94;99143.34;88166;1277;93255;-75
2022/04/06 07:36:32;;;;;;;13.30;6.20;;;;;;;6.07;76.79;99143.55;88151;1277;80834;-75
2022/04/06 07:38:43;;;;;;;13.90;6.60;;;;;;;6.09;76.86;99144.70;88062;1277;81659;-74
2022/04/06 07:40:52;;;;;;;13.70;6.60;;;;;;;6.12;76.64;99142.81;88156;1276;99236;-75
2022/04/06 07:43:02;;;;;;;11.10;5.90;;;;;;;6.11;76.41;99144.14;88125;1277;88079;-74
2022/04/06 07:45:16;;;;;;;10.80;5.90;;;;;;;6.12;76.75;99145.61;88116;1277;95221;-73
2022/04/06 07:47:32;;;;;;;11.90;6.50;;;;;;;6.14;76.74;99144.33;88132;1276;78815;-73
2022/04/06 07:49:41;;;;;;;8.50;5.60;;;;;;;6.11;76.85;99146.48;88057;1277;80957;-74
2022/04/06 07:52:04;;;;;;;11.20;6.40;;;;;;;6.06;76.84;99147.76;88134;1277;99014;-73
2022/04/06 07:54:14;;;;;;;11.90;6.80;;;;;;;6.06;76.50;99142.98;88155;1276;89859;-74
2022/04/06 07:56:26;;;;;;;12.10;7.00;;;;;;;6.08;76.47;99139.52;88198;1276;94420;-78
2022/04/06 07:58:36;;;;;;;15.40;8.70;;;;;;;6.15;76.35;99139.67;88142;1276;80978;-78
2022/04/06 08:00:48;;;;;;;17.90;10.20;;;;;;;6.17;76.44;99135.28;88123;1276;83224;-75
2022/04/06 08:02:57;;;;;;;15.40;9.00;;;;;;;6.24;76.61;99132.05;88073;1277;98931;-76
2022/04/06 08:05:08;;;;;;;19.70;11.30;;;;;;;6.33;76.69;99131.67;88128;1276;88275;-73
2022/04/06 08:07:17;;;;;;;24.50;13.20;;;;;;;6.50;76.36;99127.52;88130;1276;94253;-74
2022/04/06 08:09:26;;;;;;;21.80;11.60;;;;;;;6.54;76.53;99124.48;88165;1276;80542;-73
2022/04/06 08:11:35;;;;;;;21.80;12.80;;;;;;;6.65;76.24;99125.15;88157;1276;83182;-71
2022/04/06 08:13:48;;;;;;;21.00;12.80;;;;;;;6.66;76.09;99125.30;88092;1276;97743;-73
2022/04/06 08:15:59;;;;;;;22.60;14.10;;;;;;;6.56;75.80;99130.23;88168;1276;88959;-75
2022/04/06 08:18:11;;;;;;;19.10;13.40;;;;;;;6.50;75.88;99126.32;88126;1276;95043;-73
2022/04/06 08:20:23;;;;;;;24.20;14.20;;;;;;;6.54;75.98;99122.55;88129;1276;78395;-73
2022/04/06 08:22:33;;;;;;;19.50;12.50;;;;;;;6.42;76.16;99121.22;88163;1276;80558;-72
2022/04/06 08:24:43;;;;;;;17.50;11.50;;;;;;;6.32;75.67;99124.64;88195;1277;98954;-75
2022/04/06 08:26:52;;;;;;;14.70;10.10;;;;;;;6.27;75.99;99123.19;88192;1276;86368;-67
2022/04/06 08:29:04;;;;;;;16.10;10.60;;;;;;;6.23;76.08;99127.29;88123;1276;96288;-76
2022/04/06 08:31:13;;;;;;;17.40;11.70;;;;;;;6.21;76.27;99125.52;88151;1276;80369;-73
2022/04/06 08:33:26;;;;;;;15.40;11.00;;;;;;;6.22;76.13;99134.14;88135;1277;80458;-71
2022/04/06 08:35:36;;;;;;;18.30;11.70;;;;;;;6.23;76.45;99142.10;88165;1276;99475;-71
2022/04/06 08:37:45;;;;;;;15.80;10.90;;;;;;;6.33;76.37;99142.23;88133;1277;86549;-70
2022/04/06 08:39:55;;;;;;;19.50;13.90;;;;;;;6.41;76.13;99143.38;88099;1277;96347;-71
2022/04/06 08:42:04;;;;;;;16.60;12.20;;;;;;;6.39;76.23;99147.00;88170;1276;79488;-71
2022/04/06 08:44:13;;;;;;;15.30;12.50;;;;;;;6.35;76.28;99153.63;88166;1276;80277;-71
2022/04/06 08:46:23;;;;;;;13.70;10.80;;;;;;;6.32;76.31;99148.07;88139;1276;100198;-72
2022/04/06 08:48:33;;;;;;;11.50;9.70;;;;;;;6.28;76.57;99147.14;88164;1276;88114;-72
2022/04/06 08:50:50;;;;;;;13.10;11.00;;;;;;;6.20;76.49;99152.39;88089;1277;95999;-77
2022/04/06 08:53:00;;;;;;;11.30;9.90;;;;;;;6.28;76.52;99152.49;88144;1277;78982;-75
2022/04/06 08:55:12;;;;;;;13.40;9.20;;;;;;;6.31;76.33;99155.13;88128;1278;81265;-72
2022/04/06 08:57:22;;;;;;;11.10;9.80;;;;;;;6.28;76.64;99148.61;88159;1276;99562;-72
2022/04/06 08:59:30;;;;;;;16.60;12.10;;;;;;;6.28;76.87;99151.19;88150;1276;86538;-73
2022/04/06 09:01:39;;;;;;;11.90;10.30;;;;;;;6.38;76.59;99145.57;88189;1276;95637;-73
2022/04/06 09:03:49;;;;;;;11.60;10.40;;;;;;;6.44;76.64;99144.42;88102;1278;79948;-72
2022/04/06 09:06:06;;;;;;;12.70;11.00;;;;;;;6.44;76.51;99143.89;88121;1277;80492;-73
2022/04/06 09:08:15;;;;;;;15.70;11.90;;;;;;;6.50;76.71;99148.20;88161;1276;100031;-73
2022/04/06 09:10:37;;;;;;;12.40;11.10;;;;;;;6.52;76.70;99141.50;88111;1277;89408;-71
2022/04/06 09:12:51;;;;;;;13.20;11.80;;;;;;;6.59;76.73;99133.77;88143;1276;95102;-75
2022/04/06 09:15:12;;;;;;;14.10;12.60;;;;;;;6.61;76.62;99125.13;88135;1276;80871;-74
2022/04/06 09:17:24;;;;;;;12.40;11.10;;;;;;;6.65;76.58;99126.73;88072;1277;83165;-72
2022/04/06 09:19:36;;;;;;;12.00;10.30;;;;;;;6.53;76.81;99132.63;88109;1277;99677;-72
2022/04/06 09:21:47;;;;;;;16.10;12.40;;;;;;;6.55;76.85;99126.90;88103;1277;89565;-73
2022/04/06 09:23:56;;;;;;;14.50;12.00;;;;;;;6.60;76.65;99121.58;88082;1277;93485;-77
2022/04/06 09:26:11;;;;;;;13.80;11.70;;;;;;;6.67;76.64;99113.86;88146;1276;78623;-69
2022/04/06 09:28:21;;;;;;;17.40;14.10;;;;;;;6.72;76.81;99108.23;88129;1276;81290;-70
2022/04/06 09:30:36;;;;;;;14.40;12.90;;;;;;;6.80;76.84;99114.33;88148;1277;99318;-69
2022/04/06 09:32:47;;;;;;;14.20;12.50;;;;;;;6.84;77.02;99112.08;88111;1277;88527;-72
2022/04/06 09:34:57;;;;;;;13.00;11.70;;;;;;;6.81;76.78;99111.77;88134;1276;95695;-70
2022/04/06 09:37:27;;;;;;;14.20;12.30;;;;;;;6.75;76.92;99108.21;88131;1275;81183;-70
2022/04/06 09:39:49;;;;;;;14.00;12.00;;;;;;;6.70;76.73;99109.17;88137;1276;83616;-70
2022/04/06 09:42:05;;;;;;;13.40;12.10;;;;;;;6.66;76.87;99108.29;88146;1276;98303;-70
2022/04/06 09:49:12;;;;;;;19.00;15.10;;;;;;;6.56;77.28;99114.65;88121;1276;79613;-73
2022/04/06 09:51:24;;;;;;;21.70;15.70;;;;;;;6.58;77.35;99116.35;88127;1276;83239;-75
2022/04/06 09:53:36;;;;;;;17.10;12.90;;;;;;;6.59;77.25;99120.49;88047;1277;99905;-75
2022/04/06 09:55:47;;;;;;;15.00;12.80;;;;;;;6.65;77.46;99120.33;88105;1277;87288;-75
2022/04/06 09:57:59;;;;;;;15.30;13.60;;;;;;;6.64;77.50;99113.42;88103;1277;96077;-74
2022/04/06 10:00:18;;;;;;;15.10;12.60;;;;;;;6.66;77.55;99095.69;88103;1277;82564;-73
2022/04/06 10:02:28;;;;;;;14.90;13.30;;;;;;;6.68;77.71;99100.20;88085;1277;83104;-73
2022/04/06 10:04:38;;;;;;;15.00;12.00;;;;;;;6.74;77.66;99110.16;88092;1277;98666;-72
2022/04/06 10:06:47;;;;;;;13.60;11.20;;;;;;;6.78;77.61;99124.30;88159;1276;85866;-71
2022/04/06 10:09:00;;;;;;;11.30;10.10;;;;;;;6.79;77.48;99130.27;88124;1276;94959;-72
2022/04/06 10:11:10;;;;;;;12.70;11.30;;;;;;;6.87;77.83;99126.02;88110;1276;79937;-71
2022/04/06 10:13:24;;;;;;;40.90;35.30;;;;;;;6.97;77.89;99117.66;88211;1274;80824;-70
2022/04/06 10:15:34;;;;;;;13.40;12.10;;;;;;;7.11;77.99;99107.77;88144;1276;98598;-73
2022/04/06 10:17:47;;;;;;;11.50;10.30;;;;;;;7.30;77.78;99101.95;88159;1276;86647;-73
2022/04/06 10:20:08;;;;;;;;;;;;;;;7.37;77.72;99098.67;88157;1276;95198;-73
2022/04/06 10:22:26;;;;;;;12.10;10.80;;;;;;;7.44;77.69;99094.33;88121;1276;78543;-70
2022/04/06 10:24:53;;;;;;;13.40;11.60;;;;;;;7.49;77.71;99095.42;88150;1276;80812;-70